sensor_id;sensor_type;location;lat;lon;timestamp;temperature;humidity
71096;DHT22;58753;49.440;11.126;2023-12-04T00:01:28;-7.09;92.69
71096;DHT22;58753;49.440;11.126;2023-12-04T00:03:53;-7.14;92.63
71096;DHT22;58753;49.440;11.126;2023-12-04T00:06:19;-7.13;92.99
71096;DHT22;58753;49.440;11.126;2023-12-04T00:08:44;-7.11;93.02
71096;DHT22;58753;49.440;11.126;2023-12-04T00:11:10;-7.11;92.98
71096;DHT22;58753;49.440;11.126;2023-12-04T00:13:35;-7.14;92.90
71096;DHT22;58753;49.440;11.126;2023-12-04T00:16:01;-7.17;92.86
71096;DHT22;58753;49.440;11.126;2023-12-04T00:18:26;-7.17;92.97
71096;DHT22;58753;49.440;11.126;2023-12-04T00:20:52;-7.14;93.10
71096;DHT22;58753;49.440;11.126;2023-12-04T00:23:17;-7.11;93.11
71096;DHT22;58753;49.440;11.126;2023-12-04T00:25:43;-7.11;93.09
71096;DHT22;58753;49.440;11.126;2023-12-04T00:28:08;-7.17;92.79
71096;DHT22;58753;49.440;11.126;2023-12-04T00:30:33;-7.16;92.75
71096;DHT22;58753;49.440;11.126;2023-12-04T00:32:59;-7.19;93.01
71096;DHT22;58753;49.440;11.126;2023-12-04T00:35:24;-7.16;93.34
71096;DHT22;58753;49.440;11.126;2023-12-04T00:37:50;-7.11;93.22
71096;DHT22;58753;49.440;11.126;2023-12-04T00:40:15;-7.09;93.29
71096;DHT22;58753;49.440;11.126;2023-12-04T00:42:41;-7.07;93.19
71096;DHT22;58753;49.440;11.126;2023-12-04T00:45:06;-7.03;93.25
71096;DHT22;58753;49.440;11.126;2023-12-04T00:47:32;-7.10;92.94
71096;DHT22;58753;49.440;11.126;2023-12-04T00:49:57;-7.14;92.84
71096;DHT22;58753;49.440;11.126;2023-12-04T00:52:23;-7.20;92.83
71096;DHT22;58753;49.440;11.126;2023-12-04T00:54:48;-7.24;93.04
71096;DHT22;58753;49.440;11.126;2023-12-04T00:57:14;-7.28;92.99
71096;DHT22;58753;49.440;11.126;2023-12-04T00:59:39;-7.27;93.24
71096;DHT22;58753;49.440;11.126;2023-12-04T01:02:08;-7.20;93.49
71096;DHT22;58753;49.440;11.126;2023-12-04T01:04:34;-7.21;93.04
71096;DHT22;58753;49.440;11.126;2023-12-04T01:06:59;-7.23;93.04
71096;DHT22;58753;49.440;11.126;2023-12-04T01:09:25;-7.27;93.17
71096;DHT22;58753;49.440;11.126;2023-12-04T01:11:54;-7.27;93.00
71096;DHT22;58753;49.440;11.126;2023-12-04T01:14:20;-7.28;93.11
71096;DHT22;58753;49.440;11.126;2023-12-04T01:16:46;-7.27;93.36
71096;DHT22;58753;49.440;11.126;2023-12-04T01:19:11;-7.33;93.17
71096;DHT22;58753;49.440;11.126;2023-12-04T01:21:37;-7.35;93.06
71096;DHT22;58753;49.440;11.126;2023-12-04T01:24:02;-7.30;93.75
71096;DHT22;58753;49.440;11.126;2023-12-04T01:26:27;-7.23;93.70
71096;DHT22;58753;49.440;11.126;2023-12-04T01:28:53;-7.13;93.84
71096;DHT22;58753;49.440;11.126;2023-12-04T01:31:18;-7.07;93.75
71096;DHT22;58753;49.440;11.126;2023-12-04T01:33:44;-7.04;93.58
71096;DHT22;58753;49.440;11.126;2023-12-04T01:36:09;-6.96;93.61
71096;DHT22;58753;49.440;11.126;2023-12-04T01:38:37;-6.96;93.50
71096;DHT22;58753;49.440;11.126;2023-12-04T01:41:02;-7.00;93.12
71096;DHT22;58753;49.440;11.126;2023-12-04T01:43:28;-7.04;92.95
71096;DHT22;58753;49.440;11.126;2023-12-04T01:45:54;-7.14;93.06
71096;DHT22;58753;49.440;11.126;2023-12-04T01:48:20;-7.16;93.09
71096;DHT22;58753;49.440;11.126;2023-12-04T01:50:45;-7.17;93.22
71096;DHT22;58753;49.440;11.126;2023-12-04T01:53:11;-7.28;92.91
71096;DHT22;58753;49.440;11.126;2023-12-04T01:55:37;-7.33;92.77
71096;DHT22;58753;49.440;11.126;2023-12-04T01:58:03;-7.37;93.20
71096;DHT22;58753;49.440;11.126;2023-12-04T02:00:31;-7.38;93.26
71096;DHT22;58753;49.440;11.126;2023-12-04T02:02:58;-7.43;93.13
71096;DHT22;58753;49.440;11.126;2023-12-04T02:05:24;-7.40;93.47
71096;DHT22;58753;49.440;11.126;2023-12-04T02:07:51;-7.35;93.66
71096;DHT22;58753;49.440;11.126;2023-12-04T02:10:17;-7.34;93.61
71096;DHT22;58753;49.440;11.126;2023-12-04T02:12:43;-7.33;93.58
71096;DHT22;58753;49.440;11.126;2023-12-04T02:15:08;-7.30;93.58
71096;DHT22;58753;49.440;11.126;2023-12-04T02:17:34;-7.27;93.56
71096;DHT22;58753;49.440;11.126;2023-12-04T02:19:59;-7.26;93.62
71096;DHT22;58753;49.440;11.126;2023-12-04T02:22:25;-7.26;93.42
71096;DHT22;58753;49.440;11.126;2023-12-04T02:24:50;-7.21;93.75
71096;DHT22;58753;49.440;11.126;2023-12-04T02:27:18;-7.21;93.62
71096;DHT22;58753;49.440;11.126;2023-12-04T02:29:47;-7.21;93.45
71096;DHT22;58753;49.440;11.126;2023-12-04T02:32:19;-7.28;93.18
71096;DHT22;58753;49.440;11.126;2023-12-04T02:34:45;-7.34;92.94
71096;DHT22;58753;49.440;11.126;2023-12-04T02:37:12;-7.47;93.02
71096;DHT22;58753;49.440;11.126;2023-12-04T02:39:39;-7.56;93.13
71096;DHT22;58753;49.440;11.126;2023-12-04T02:42:05;-7.55;93.55
71096;DHT22;58753;49.440;11.126;2023-12-04T02:44:31;-7.54;93.61
71096;DHT22;58753;49.440;11.126;2023-12-04T02:46:56;-7.56;93.34
71096;DHT22;58753;49.440;11.126;2023-12-04T02:49:22;-7.58;93.45
71096;DHT22;58753;49.440;11.126;2023-12-04T02:51:47;-7.54;93.80
71096;DHT22;58753;49.440;11.126;2023-12-04T02:54:13;-7.50;93.70
71096;DHT22;58753;49.440;11.126;2023-12-04T02:56:38;-7.48;93.72
71096;DHT22;58753;49.440;11.126;2023-12-04T02:59:03;-7.50;93.47
71096;DHT22;58753;49.440;11.126;2023-12-04T03:01:29;-7.51;93.45
71096;DHT22;58753;49.440;11.126;2023-12-04T03:03:54;-7.47;93.67
71096;DHT22;58753;49.440;11.126;2023-12-04T03:06:20;-7.48;93.43
71096;DHT22;58753;49.440;11.126;2023-12-04T03:08:45;-7.48;93.55
71096;DHT22;58753;49.440;11.126;2023-12-04T03:11:10;-7.52;93.20
71096;DHT22;58753;49.440;11.126;2023-12-04T03:13:36;-7.52;93.38
71096;DHT22;58753;49.440;11.126;2023-12-04T03:16:01;-7.52;93.58
71096;DHT22;58753;49.440;11.126;2023-12-04T03:18:27;-7.52;93.43
71096;DHT22;58753;49.440;11.126;2023-12-04T03:20:54;-7.54;93.16
71096;DHT22;58753;49.440;11.126;2023-12-04T03:23:19;-7.56;93.30
71096;DHT22;58753;49.440;11.126;2023-12-04T03:25:45;-7.56;93.48
71096;DHT22;58753;49.440;11.126;2023-12-04T03:28:10;-7.50;93.55
71096;DHT22;58753;49.440;11.126;2023-12-04T03:30:35;-7.54;93.30
71096;DHT22;58753;49.440;11.126;2023-12-04T03:33:01;-7.55;93.39
71096;DHT22;58753;49.440;11.126;2023-12-04T03:35:26;-7.55;93.37
71096;DHT22;58753;49.440;11.126;2023-12-04T03:37:52;-7.56;93.24
71096;DHT22;58753;49.440;11.126;2023-12-04T03:40:17;-7.64;92.81
71096;DHT22;58753;49.440;11.126;2023-12-04T03:42:43;-7.68;92.91
71096;DHT22;58753;49.440;11.126;2023-12-04T03:45:09;-7.70;93.33
71096;DHT22;58753;49.440;11.126;2023-12-04T03:47:34;-7.73;93.20
71096;DHT22;58753;49.440;11.126;2023-12-04T03:50:00;-7.71;93.08
71096;DHT22;58753;49.440;11.126;2023-12-04T03:52:25;-7.71;93.17
71096;DHT22;58753;49.440;11.126;2023-12-04T03:54:50;-7.75;93.11
71096;DHT22;58753;49.440;11.126;2023-12-04T03:57:16;-7.74;93.18
71096;DHT22;58753;49.440;11.126;2023-12-04T03:59:41;-7.71;93.29
71096;DHT22;58753;49.440;11.126;2023-12-04T04:02:08;-7.71;93.29
71096;DHT22;58753;49.440;11.126;2023-12-04T04:04:33;-7.71;93.15
71096;DHT22;58753;49.440;11.126;2023-12-04T04:06:59;-7.71;93.19
71096;DHT22;58753;49.440;11.126;2023-12-04T04:09:24;-7.73;93.22
71096;DHT22;58753;49.440;11.126;2023-12-04T04:11:50;-7.68;93.16
71096;DHT22;58753;49.440;11.126;2023-12-04T04:14:15;-7.70;93.11
71096;DHT22;58753;49.440;11.126;2023-12-04T04:16:40;-7.65;93.13
71096;DHT22;58753;49.440;11.126;2023-12-04T04:19:06;-7.70;93.13
71096;DHT22;58753;49.440;11.126;2023-12-04T04:21:32;-7.65;93.21
71096;DHT22;58753;49.440;11.126;2023-12-04T04:23:57;-7.67;93.15
71096;DHT22;58753;49.440;11.126;2023-12-04T04:26:23;-7.61;93.14
71096;DHT22;58753;49.440;11.126;2023-12-04T04:28:48;-7.64;92.77
71096;DHT22;58753;49.440;11.126;2023-12-04T04:31:14;-7.73;92.53
71096;DHT22;58753;49.440;11.126;2023-12-04T04:33:39;-7.78;92.72
71096;DHT22;58753;49.440;11.126;2023-12-04T04:36:05;-7.81;92.79
71096;DHT22;58753;49.440;11.126;2023-12-04T04:38:30;-7.82;92.98
71096;DHT22;58753;49.440;11.126;2023-12-04T04:40:56;-7.81;93.01
71096;DHT22;58753;49.440;11.126;2023-12-04T04:43:21;-7.79;93.05
71096;DHT22;58753;49.440;11.126;2023-12-04T04:45:46;-7.79;92.97
71096;DHT22;58753;49.440;11.126;2023-12-04T04:48:12;-7.78;93.18
71096;DHT22;58753;49.440;11.126;2023-12-04T04:50:37;-7.75;93.28
71096;DHT22;58753;49.440;11.126;2023-12-04T04:53:03;-7.67;93.48
71096;DHT22;58753;49.440;11.126;2023-12-04T04:55:28;-7.59;93.29
71096;DHT22;58753;49.440;11.126;2023-12-04T04:57:54;-7.56;93.23
71096;DHT22;58753;49.440;11.126;2023-12-04T05:00:19;-7.56;93.17
71096;DHT22;58753;49.440;11.126;2023-12-04T05:02:45;-7.51;93.24
71096;DHT22;58753;49.440;11.126;2023-12-04T05:05:11;-7.45;93.26
71096;DHT22;58753;49.440;11.126;2023-12-04T05:07:36;-7.43;93.19
71096;DHT22;58753;49.440;11.126;2023-12-04T05:10:02;-7.37;93.08
71096;DHT22;58753;49.440;11.126;2023-12-04T05:12:28;-7.35;93.18
71096;DHT22;58753;49.440;11.126;2023-12-04T05:14:53;-7.33;93.09
71096;DHT22;58753;49.440;11.126;2023-12-04T05:17:18;-7.31;93.03
71096;DHT22;58753;49.440;11.126;2023-12-04T05:19:44;-7.31;93.08
71096;DHT22;58753;49.440;11.126;2023-12-04T05:22:09;-7.34;92.73
71096;DHT22;58753;49.440;11.126;2023-12-04T05:24:34;-7.38;92.63
71096;DHT22;58753;49.440;11.126;2023-12-04T05:27:01;-7.45;92.43
71096;DHT22;58753;49.440;11.126;2023-12-04T05:29:27;-7.44;92.94
71096;DHT22;58753;49.440;11.126;2023-12-04T05:31:53;-7.38;93.05
71096;DHT22;58753;49.440;11.126;2023-12-04T05:34:18;-7.37;92.90
71096;DHT22;58753;49.440;11.126;2023-12-04T05:36:44;-7.35;92.96
71096;DHT22;58753;49.440;11.126;2023-12-04T05:39:09;-7.33;92.92
71096;DHT22;58753;49.440;11.126;2023-12-04T05:41:34;-7.34;92.96
71096;DHT22;58753;49.440;11.126;2023-12-04T05:44:00;-7.28;93.12
71096;DHT22;58753;49.440;11.126;2023-12-04T05:46:26;-7.23;93.11
71096;DHT22;58753;49.440;11.126;2023-12-04T05:48:51;-7.17;93.13
71096;DHT22;58753;49.440;11.126;2023-12-04T05:51:17;-7.13;93.17
71096;DHT22;58753;49.440;11.126;2023-12-04T05:53:42;-7.06;93.18
71096;DHT22;58753;49.440;11.126;2023-12-04T05:56:08;-7.01;93.13
71096;DHT22;58753;49.440;11.126;2023-12-04T05:58:34;-6.99;93.19
71096;DHT22;58753;49.440;11.126;2023-12-04T06:01:00;-6.99;92.74
71096;DHT22;58753;49.440;11.126;2023-12-04T06:03:25;-7.00;92.93
71096;DHT22;58753;49.440;11.126;2023-12-04T06:05:50;-6.96;93.09
71096;DHT22;58753;49.440;11.126;2023-12-04T06:08:16;-6.95;93.04
71096;DHT22;58753;49.440;11.126;2023-12-04T06:10:42;-6.90;93.05
71096;DHT22;58753;49.440;11.126;2023-12-04T06:13:07;-6.89;93.15
71096;DHT22;58753;49.440;11.126;2023-12-04T06:15:32;-6.86;92.93
71096;DHT22;58753;49.440;11.126;2023-12-04T06:17:58;-6.82;93.10
71096;DHT22;58753;49.440;11.126;2023-12-04T06:20:23;-6.85;92.75
71096;DHT22;58753;49.440;11.126;2023-12-04T06:22:49;-6.82;93.13
71096;DHT22;58753;49.440;11.126;2023-12-04T06:25:15;-6.85;92.94
71096;DHT22;58753;49.440;11.126;2023-12-04T06:27:41;-6.85;93.06
71096;DHT22;58753;49.440;11.126;2023-12-04T06:30:06;-6.83;92.99
71096;DHT22;58753;49.440;11.126;2023-12-04T06:32:32;-6.88;92.88
71096;DHT22;58753;49.440;11.126;2023-12-04T06:34:58;-6.80;92.97
71096;DHT22;58753;49.440;11.126;2023-12-04T06:37:24;-6.82;92.97
71096;DHT22;58753;49.440;11.126;2023-12-04T06:39:52;-6.80;93.13
71096;DHT22;58753;49.440;11.126;2023-12-04T06:42:19;-6.83;92.86
71096;DHT22;58753;49.440;11.126;2023-12-04T06:44:44;-6.79;92.99
71096;DHT22;58753;49.440;11.126;2023-12-04T06:47:11;-6.79;93.08
71096;DHT22;58753;49.440;11.126;2023-12-04T06:49:37;-6.72;93.23
71096;DHT22;58753;49.440;11.126;2023-12-04T06:52:03;-6.71;93.09
71096;DHT22;58753;49.440;11.126;2023-12-04T06:54:28;-6.71;92.97
71096;DHT22;58753;49.440;11.126;2023-12-04T06:56:54;-6.65;93.01
71096;DHT22;58753;49.440;11.126;2023-12-04T06:59:19;-6.62;93.23
71096;DHT22;58753;49.440;11.126;2023-12-04T07:01:45;-6.55;93.33
71096;DHT22;58753;49.440;11.126;2023-12-04T07:04:11;-6.52;93.12
71096;DHT22;58753;49.440;11.126;2023-12-04T07:06:37;-6.48;93.18
71096;DHT22;58753;49.440;11.126;2023-12-04T07:09:03;-6.49;92.79
71096;DHT22;58753;49.440;11.126;2023-12-04T07:11:28;-6.50;92.92
71096;DHT22;58753;49.440;11.126;2023-12-04T07:13:54;-6.49;92.88
71096;DHT22;58753;49.440;11.126;2023-12-04T07:16:19;-6.45;93.17
71096;DHT22;58753;49.440;11.126;2023-12-04T07:18:45;-6.45;93.12
71096;DHT22;58753;49.440;11.126;2023-12-04T07:21:11;-6.42;93.10
71096;DHT22;58753;49.440;11.126;2023-12-04T07:23:36;-6.37;93.11
71096;DHT22;58753;49.440;11.126;2023-12-04T07:26:02;-6.38;92.91
71096;DHT22;58753;49.440;11.126;2023-12-04T07:28:29;-6.41;92.76
71096;DHT22;58753;49.440;11.126;2023-12-04T07:30:55;-6.48;92.80
71096;DHT22;58753;49.440;11.126;2023-12-04T07:33:20;-6.48;92.86
71096;DHT22;58753;49.440;11.126;2023-12-04T07:35:46;-6.45;93.27
71096;DHT22;58753;49.440;11.126;2023-12-04T07:38:12;-6.38;93.37
71096;DHT22;58753;49.440;11.126;2023-12-04T07:40:37;-6.31;93.50
71096;DHT22;58753;49.440;11.126;2023-12-04T07:43:03;-6.25;93.14
71096;DHT22;58753;49.440;11.126;2023-12-04T07:45:28;-6.22;93.18
71096;DHT22;58753;49.440;11.126;2023-12-04T07:47:54;-6.18;93.00
71096;DHT22;58753;49.440;11.126;2023-12-04T07:50:20;-6.10;93.21
71096;DHT22;58753;49.440;11.126;2023-12-04T07:52:45;-6.05;93.17
71096;DHT22;58753;49.440;11.126;2023-12-04T07:55:10;-6.01;93.04
71096;DHT22;58753;49.440;11.126;2023-12-04T07:57:36;-5.93;93.20
71096;DHT22;58753;49.440;11.126;2023-12-04T08:00:01;-5.90;93.01
71096;DHT22;58753;49.440;11.126;2023-12-04T08:02:27;-5.84;92.95
71096;DHT22;58753;49.440;11.126;2023-12-04T08:04:53;-5.79;93.16
71096;DHT22;58753;49.440;11.126;2023-12-04T08:07:18;-5.72;93.26
71096;DHT22;58753;49.440;11.126;2023-12-04T08:09:44;-5.64;93.09
71096;DHT22;58753;49.440;11.126;2023-12-04T08:12:09;-5.53;93.02
71096;DHT22;58753;49.440;11.126;2023-12-04T08:14:35;-5.48;92.89
71096;DHT22;58753;49.440;11.126;2023-12-04T08:17:00;-5.39;92.92
71096;DHT22;58753;49.440;11.126;2023-12-04T08:19:26;-5.33;92.87
71096;DHT22;58753;49.440;11.126;2023-12-04T08:21:51;-5.28;92.91
71096;DHT22;58753;49.440;11.126;2023-12-04T08:24:17;-5.16;92.94
71096;DHT22;58753;49.440;11.126;2023-12-04T08:26:46;-5.09;92.82
71096;DHT22;58753;49.440;11.126;2023-12-04T08:29:12;-4.98;92.91
71096;DHT22;58753;49.440;11.126;2023-12-04T08:31:37;-4.88;92.86
71096;DHT22;58753;49.440;11.126;2023-12-04T08:34:02;-4.78;92.70
71096;DHT22;58753;49.440;11.126;2023-12-04T08:36:28;-4.67;92.77
71096;DHT22;58753;49.440;11.126;2023-12-04T08:38:53;-4.57;92.80
71096;DHT22;58753;49.440;11.126;2023-12-04T08:41:19;-4.43;92.75
71096;DHT22;58753;49.440;11.126;2023-12-04T08:43:45;-4.29;92.64
71096;DHT22;58753;49.440;11.126;2023-12-04T08:46:14;-4.16;92.57
71096;DHT22;58753;49.440;11.126;2023-12-04T08:48:40;-4.01;92.42
71096;DHT22;58753;49.440;11.126;2023-12-04T08:51:06;-3.93;92.21
71096;DHT22;58753;49.440;11.126;2023-12-04T08:53:33;-3.79;91.89
71096;DHT22;58753;49.440;11.126;2023-12-04T08:55:59;-3.68;91.99
71096;DHT22;58753;49.440;11.126;2023-12-04T08:58:24;-3.57;92.01
71096;DHT22;58753;49.440;11.126;2023-12-04T09:00:49;-3.40;91.72
71096;DHT22;58753;49.440;11.126;2023-12-04T09:03:15;-3.33;91.69
71096;DHT22;58753;49.440;11.126;2023-12-04T09:05:40;-3.21;91.29
71096;DHT22;58753;49.440;11.126;2023-12-04T09:08:06;-3.14;91.05
71096;DHT22;58753;49.440;11.126;2023-12-04T09:10:32;-3.01;91.30
71096;DHT22;58753;49.440;11.126;2023-12-04T09:12:57;-2.90;91.17
71096;DHT22;58753;49.440;11.126;2023-12-04T09:15:23;-2.82;90.99
71096;DHT22;58753;49.440;11.126;2023-12-04T09:17:48;-2.72;90.62
71096;DHT22;58753;49.440;11.126;2023-12-04T09:20:14;-2.65;90.46
71096;DHT22;58753;49.440;11.126;2023-12-04T09:22:39;-2.58;90.22
71096;DHT22;58753;49.440;11.126;2023-12-04T09:25:06;-2.49;90.22
71096;DHT22;58753;49.440;11.126;2023-12-04T09:27:31;-2.41;90.16
71096;DHT22;58753;49.440;11.126;2023-12-04T09:29:58;-2.31;90.11
71096;DHT22;58753;49.440;11.126;2023-12-04T09:32:23;-2.28;89.57
71096;DHT22;58753;49.440;11.126;2023-12-04T09:34:49;-2.21;89.59
71096;DHT22;58753;49.440;11.126;2023-12-04T09:37:15;-2.17;89.44
71096;DHT22;58753;49.440;11.126;2023-12-04T09:39:40;-2.14;89.29
71096;DHT22;58753;49.440;11.126;2023-12-04T09:42:07;-2.05;89.05
71096;DHT22;58753;49.440;11.126;2023-12-04T09:44:34;-1.97;89.07
71096;DHT22;58753;49.440;11.126;2023-12-04T09:47:00;-1.89;89.11
71096;DHT22;58753;49.440;11.126;2023-12-04T09:49:28;-1.80;88.71
71096;DHT22;58753;49.440;11.126;2023-12-04T09:51:54;-1.81;88.23
71096;DHT22;58753;49.440;11.126;2023-12-04T09:54:19;-1.70;88.32
71096;DHT22;58753;49.440;11.126;2023-12-04T09:56:45;-1.70;88.05
71096;DHT22;58753;49.440;11.126;2023-12-04T09:59:13;-1.66;87.73
71096;DHT22;58753;49.440;11.126;2023-12-04T10:01:41;-1.63;87.58
71096;DHT22;58753;49.440;11.126;2023-12-04T10:04:06;-1.60;87.08
71096;DHT22;58753;49.440;11.126;2023-12-04T10:06:33;-1.60;86.62
71096;DHT22;58753;49.440;11.126;2023-12-04T10:08:59;-1.57;86.37
71096;DHT22;58753;49.440;11.126;2023-12-04T10:11:25;-1.52;86.21
71096;DHT22;58753;49.440;11.126;2023-12-04T10:13:52;-1.45;86.02
71096;DHT22;58753;49.440;11.126;2023-12-04T10:16:34;-1.36;85.66
71096;DHT22;58753;49.440;11.126;2023-12-04T10:19:20;-1.31;84.94
71096;DHT22;58753;49.440;11.126;2023-12-04T10:21:46;-1.22;85.11
71096;DHT22;58753;49.440;11.126;2023-12-04T10:24:14;-1.25;83.94
71096;DHT22;58753;49.440;11.126;2023-12-04T10:26:51;-1.16;84.25
71096;DHT22;58753;49.440;11.126;2023-12-04T10:29:16;-1.08;84.38
71096;DHT22;58753;49.440;11.126;2023-12-04T10:31:42;-1.06;83.67
71096;DHT22;58753;49.440;11.126;2023-12-04T10:34:07;-1.04;83.61
71096;DHT22;58753;49.440;11.126;2023-12-04T10:36:35;-0.99;83.44
71096;DHT22;58753;49.440;11.126;2023-12-04T10:39:01;-1.05;82.91
71096;DHT22;58753;49.440;11.126;2023-12-04T10:41:30;-1.05;82.71
71096;DHT22;58753;49.440;11.126;2023-12-04T10:43:56;-1.05;82.43
71096;DHT22;58753;49.440;11.126;2023-12-04T10:46:24;-1.05;82.43
71096;DHT22;58753;49.440;11.126;2023-12-04T10:48:50;-0.95;82.70
71096;DHT22;58753;49.440;11.126;2023-12-04T10:51:17;-0.87;82.25
71096;DHT22;58753;49.440;11.126;2023-12-04T10:53:42;-0.81;81.96
71096;DHT22;58753;49.440;11.126;2023-12-04T10:56:10;-0.71;81.93
71096;DHT22;58753;49.440;11.126;2023-12-04T10:58:41;-0.61;81.98
71096;DHT22;58753;49.440;11.126;2023-12-04T11:01:07;-0.56;81.38
71096;DHT22;58753;49.440;11.126;2023-12-04T11:03:43;-0.51;80.99
71096;DHT22;58753;49.440;11.126;2023-12-04T11:06:10;-0.64;79.45
71096;DHT22;58753;49.440;11.126;2023-12-04T11:08:39;-0.67;80.30
71096;DHT22;58753;49.440;11.126;2023-12-04T11:11:12;-0.67;80.51
71096;DHT22;58753;49.440;11.126;2023-12-04T11:13:40;-0.68;80.29
71096;DHT22;58753;49.440;11.126;2023-12-04T11:18:52;-0.83;79.78
71096;DHT22;58753;49.440;11.126;2023-12-04T11:21:20;-0.77;80.08
71096;DHT22;58753;49.440;11.126;2023-12-04T11:23:46;-0.74;80.06
71096;DHT22;58753;49.440;11.126;2023-12-04T11:26:14;-0.73;79.83
71096;DHT22;58753;49.440;11.126;2023-12-04T11:28:41;-0.70;79.71
71096;DHT22;58753;49.440;11.126;2023-12-04T11:31:07;-0.65;79.81
71096;DHT22;58753;49.440;11.126;2023-12-04T11:33:37;-0.63;79.86
71096;DHT22;58753;49.440;11.126;2023-12-04T11:36:11;-0.70;79.02
71096;DHT22;58753;49.440;11.126;2023-12-04T11:38:38;-0.77;79.14
71096;DHT22;58753;49.440;11.126;2023-12-04T11:41:20;-0.83;79.17
71096;DHT22;58753;49.440;11.126;2023-12-04T11:43:46;-0.81;79.26
71096;DHT22;58753;49.440;11.126;2023-12-04T11:46:13;-0.89;79.03
71096;DHT22;58753;49.440;11.126;2023-12-04T11:48:47;-0.89;79.05
71096;DHT22;58753;49.440;11.126;2023-12-04T11:51:15;-0.92;78.83
71096;DHT22;58753;49.440;11.126;2023-12-04T11:54:00;-0.96;78.95
71096;DHT22;58753;49.440;11.126;2023-12-04T11:56:25;-0.96;79.04
71096;DHT22;58753;49.440;11.126;2023-12-04T11:58:51;-1.02;78.84
71096;DHT22;58753;49.440;11.126;2023-12-04T12:01:20;-1.09;78.61
71096;DHT22;58753;49.440;11.126;2023-12-04T12:03:50;-1.11;78.69
71096;DHT22;58753;49.440;11.126;2023-12-04T12:06:16;-1.11;78.84
71096;DHT22;58753;49.440;11.126;2023-12-04T12:08:42;-1.16;78.63
71096;DHT22;58753;49.440;11.126;2023-12-04T12:11:07;-1.20;78.55
71096;DHT22;58753;49.440;11.126;2023-12-04T12:13:33;-1.20;78.68
71096;DHT22;58753;49.440;11.126;2023-12-04T12:15:58;-1.18;78.85
71096;DHT22;58753;49.440;11.126;2023-12-04T12:18:24;-1.13;78.89
71096;DHT22;58753;49.440;11.126;2023-12-04T12:20:50;-1.06;78.89
71096;DHT22;58753;49.440;11.126;2023-12-04T12:23:15;-0.99;78.90
71096;DHT22;58753;49.440;11.126;2023-12-04T12:25:41;-0.92;79.04
71096;DHT22;58753;49.440;11.126;2023-12-04T12:28:06;-0.91;78.63
71096;DHT22;58753;49.440;11.126;2023-12-04T12:30:33;-0.88;78.25
71096;DHT22;58753;49.440;11.126;2023-12-04T12:32:58;-0.84;78.55
71096;DHT22;58753;49.440;11.126;2023-12-04T12:35:24;-0.78;78.59
71096;DHT22;58753;49.440;11.126;2023-12-04T12:37:50;-0.68;78.37
71096;DHT22;58753;49.440;11.126;2023-12-04T12:40:20;-0.61;78.31
71096;DHT22;58753;49.440;11.126;2023-12-04T12:42:46;-0.53;78.36
71096;DHT22;58753;49.440;11.126;2023-12-04T12:45:12;-0.54;78.03
71096;DHT22;58753;49.440;11.126;2023-12-04T12:47:39;-0.57;77.68
71096;DHT22;58753;49.440;11.126;2023-12-04T12:50:08;-0.68;77.45
71096;DHT22;58753;49.440;11.126;2023-12-04T12:52:35;-0.80;77.33
71096;DHT22;58753;49.440;11.126;2023-12-04T12:55:00;-0.88;77.51
71096;DHT22;58753;49.440;11.126;2023-12-04T12:57:26;-0.96;77.33
71096;DHT22;58753;49.440;11.126;2023-12-04T12:59:52;-1.05;77.52
71096;DHT22;58753;49.440;11.126;2023-12-04T13:02:19;-1.09;77.66
71096;DHT22;58753;49.440;11.126;2023-12-04T13:04:45;-1.16;77.60
71096;DHT22;58753;49.440;11.126;2023-12-04T13:07:10;-1.16;77.95
71096;DHT22;58753;49.440;11.126;2023-12-04T13:09:37;-1.15;78.07
71096;DHT22;58753;49.440;11.126;2023-12-04T13:12:08;-1.22;77.90
71096;DHT22;58753;49.440;11.126;2023-12-04T13:14:34;-1.26;78.11
71096;DHT22;58753;49.440;11.126;2023-12-04T13:17:03;-1.26;78.35
71096;DHT22;58753;49.440;11.126;2023-12-04T13:19:29;-1.26;78.46
71096;DHT22;58753;49.440;11.126;2023-12-04T13:21:57;-1.22;78.72
71096;DHT22;58753;49.440;11.126;2023-12-04T13:24:22;-1.11;78.73
71096;DHT22;58753;49.440;11.126;2023-12-04T13:26:48;-1.01;79.13
71096;DHT22;58753;49.440;11.126;2023-12-04T13:29:13;-0.96;78.99
71096;DHT22;58753;49.440;11.126;2023-12-04T13:31:42;-0.99;78.73
71096;DHT22;58753;49.440;11.126;2023-12-04T13:34:08;-1.01;78.68
71096;DHT22;58753;49.440;11.126;2023-12-04T13:36:34;-1.05;78.53
71096;DHT22;58753;49.440;11.126;2023-12-04T13:38:59;-1.08;78.56
71096;DHT22;58753;49.440;11.126;2023-12-04T13:41:25;-1.13;78.51
71096;DHT22;58753;49.440;11.126;2023-12-04T13:44:09;-1.16;78.75
71096;DHT22;58753;49.440;11.126;2023-12-04T13:46:34;-1.19;78.94
71096;DHT22;58753;49.440;11.126;2023-12-04T13:49:00;-1.20;79.15
71096;DHT22;58753;49.440;11.126;2023-12-04T13:51:25;-1.19;79.09
71096;DHT22;58753;49.440;11.126;2023-12-04T13:53:52;-1.18;79.15
71096;DHT22;58753;49.440;11.126;2023-12-04T13:56:22;-1.20;79.26
71096;DHT22;58753;49.440;11.126;2023-12-04T13:59:06;-1.20;79.43
71096;DHT22;58753;49.440;11.126;2023-12-04T14:01:32;-1.18;79.43
71096;DHT22;58753;49.440;11.126;2023-12-04T14:03:58;-1.13;79.64
71096;DHT22;58753;49.440;11.126;2023-12-04T14:06:28;-1.02;79.95
71096;DHT22;58753;49.440;11.126;2023-12-04T14:08:53;-1.01;79.47
71096;DHT22;58753;49.440;11.126;2023-12-04T14:11:18;-1.04;79.44
71096;DHT22;58753;49.440;11.126;2023-12-04T14:13:44;-1.08;79.41
71096;DHT22;58753;49.440;11.126;2023-12-04T14:16:10;-1.13;79.27
71096;DHT22;58753;49.440;11.126;2023-12-04T14:18:35;-1.20;79.38
71096;DHT22;58753;49.440;11.126;2023-12-04T14:21:01;-1.19;79.71
71096;DHT22;58753;49.440;11.126;2023-12-04T14:23:27;-1.29;79.59
71096;DHT22;58753;49.440;11.126;2023-12-04T14:25:52;-1.35;79.59
71096;DHT22;58753;49.440;11.126;2023-12-04T14:28:18;-1.46;79.59
71096;DHT22;58753;49.440;11.126;2023-12-04T14:30:43;-1.46;79.83
71096;DHT22;58753;49.440;11.126;2023-12-04T14:33:09;-1.49;80.01
71096;DHT22;58753;49.440;11.126;2023-12-04T14:35:36;-1.55;79.94
71096;DHT22;58753;49.440;11.126;2023-12-04T14:38:04;-1.56;79.99
71096;DHT22;58753;49.440;11.126;2023-12-04T14:40:32;-1.64;80.11
71096;DHT22;58753;49.440;11.126;2023-12-04T14:42:58;-1.69;80.18
71096;DHT22;58753;49.440;11.126;2023-12-04T14:45:23;-1.70;80.49
71096;DHT22;58753;49.440;11.126;2023-12-04T14:47:49;-1.71;80.61
71096;DHT22;58753;49.440;11.126;2023-12-04T14:50:17;-1.70;80.79
71096;DHT22;58753;49.440;11.126;2023-12-04T14:52:42;-1.69;81.00
71096;DHT22;58753;49.440;11.126;2023-12-04T14:55:20;-1.67;81.04
71096;DHT22;58753;49.440;11.126;2023-12-04T14:57:48;-1.66;81.21
71096;DHT22;58753;49.440;11.126;2023-12-04T15:00:31;-1.66;81.19
71096;DHT22;58753;49.440;11.126;2023-12-04T15:02:57;-1.67;81.38
71096;DHT22;58753;49.440;11.126;2023-12-04T15:05:54;-1.67;81.40
71096;DHT22;58753;49.440;11.126;2023-12-04T15:08:52;-1.71;81.49
71096;DHT22;58753;49.440;11.126;2023-12-04T15:11:36;-1.74;81.65
71096;DHT22;58753;49.440;11.126;2023-12-04T15:14:40;-1.79;81.80